This is the latest recevied weather packets stored in our database for station/object EA3CTN-13. If no packets are shown the sender has not sent any weather packets the latest 10 day(s).
| Time | Temp. | Humidity | Pressure | Rain* | Wind** | Luminosity | Snow |
|---|---|---|---|---|---|---|---|
| 1778084961 | 37.78° C | 16% | 1010.4 hPa | - | - | - | - |
| 1778084481 | 36.67° C | 18% | 1010.5 hPa | - | - | - | - |
| 1778084001 | 35° C | 19% | 1010.6 hPa | - | - | - | - |
| 1778083521 | 32.22° C | 21% | 1010.7 hPa | - | - | - | - |
| 1778083041 | 28.89° C | 26% | 1010.9 hPa | - | - | - | - |
| 1778082561 | 22.78° C | 36% | 1011.1 hPa | - | - | - | - |
| 1778082081 | 21.67° C | 37% | 1011.2 hPa | - | - | - | - |
| 1778081601 | 21.67° C | 38% | 1011.3 hPa | - | - | - | - |
| 1778081121 | 21.67° C | 37% | 1011.2 hPa | - | - | - | - |
| 1778080641 | 21.67° C | 38% | 1011.4 hPa | - | - | - | - |
| 1778080161 | 21.11° C | 41% | 1011.4 hPa | - | - | - | - |
| 1778079681 | 21.11° C | 40% | 1011.4 hPa | - | - | - | - |
| 1778079201 | 21.11° C | 41% | 1011.5 hPa | - | - | - | - |
| 1778078721 | 21.11° C | 41% | 1011.5 hPa | - | - | - | - |
| 1778078241 | 21.11° C | 41% | 1011.5 hPa | - | - | - | - |
| 1778077761 | 20.56° C | 42% | 1011.7 hPa | - | - | - | - |
| 1778077281 | 21.11° C | 41% | 1011.6 hPa | - | - | - | - |
| 1778076801 | 20.56° C | 40% | 1011.7 hPa | - | - | - | - |
| 1778076321 | 20.56° C | 39% | 1011.8 hPa | - | - | - | - |
| 1778075841 | 20.56° C | 38% | 1011.7 hPa | - | - | - | - |
| 1778075361 | 20.56° C | 39% | 1011.9 hPa | - | - | - | - |
| 1778074881 | 20.56° C | 40% | 1012 hPa | - | - | - | - |
| 1778074401 | 20.56° C | 39% | 1012.1 hPa | - | - | - | - |
| 1778073921 | 20.56° C | 39% | 1012 hPa | - | - | - | - |
| 1778073440 | 20.56° C | 38% | 1012.1 hPa | - | - | - | - |
* Rain since midnight (hover to see other rain measurements)
** Current wind speed in m/s (hover to see current wind gust speed)